sensor_id;sensor_type;location;lat;lon;timestamp;pressure;altitude;pressure_sealevel;temperature;humidity
74915;BME280;63475;45.140;-75.616;2023-06-10T00:00:33;99741.66;;;19.06;51.71
74915;BME280;63475;45.140;-75.616;2023-06-10T00:01:36;99734.94;;;19.02;51.53
74915;BME280;63475;45.140;-75.616;2023-06-10T00:02:39;99741.72;;;18.97;51.89
74915;BME280;63475;45.140;-75.616;2023-06-10T00:03:42;99739.88;;;18.98;52.22
74915;BME280;63475;45.140;-75.616;2023-06-10T00:04:46;99742.09;;;18.94;51.93
74915;BME280;63475;45.140;-75.616;2023-06-10T00:05:49;99742.63;;;18.90;52.21
74915;BME280;63475;45.140;-75.616;2023-06-10T00:06:52;99746.69;;;18.86;52.34
74915;BME280;63475;45.140;-75.616;2023-06-10T00:07:56;99743.53;;;18.82;52.67
74915;BME280;63475;45.140;-75.616;2023-06-10T00:08:59;99741.88;;;18.81;53.09
74915;BME280;63475;45.140;-75.616;2023-06-10T00:10:06;99744.94;;;18.78;53.31
74915;BME280;63475;45.140;-75.616;2023-06-10T00:11:09;99750.50;;;18.77;53.39
74915;BME280;63475;45.140;-75.616;2023-06-10T00:12:12;99755.44;;;18.73;53.42
74915;BME280;63475;45.140;-75.616;2023-06-10T00:13:15;99750.38;;;18.70;53.40
74915;BME280;63475;45.140;-75.616;2023-06-10T00:14:18;99745.16;;;18.69;53.67
74915;BME280;63475;45.140;-75.616;2023-06-10T00:15:21;99748.22;;;18.65;53.79
74915;BME280;63475;45.140;-75.616;2023-06-10T00:16:24;99745.69;;;18.64;54.04
74915;BME280;63475;45.140;-75.616;2023-06-10T00:17:27;99745.03;;;18.62;54.32
74915;BME280;63475;45.140;-75.616;2023-06-10T00:18:31;99750.84;;;18.59;54.47
74915;BME280;63475;45.140;-75.616;2023-06-10T00:19:33;99752.03;;;18.56;54.46
74915;BME280;63475;45.140;-75.616;2023-06-10T00:20:37;99754.06;;;18.54;54.47
74915;BME280;63475;45.140;-75.616;2023-06-10T00:21:41;99756.13;;;18.52;54.33
74915;BME280;63475;45.140;-75.616;2023-06-10T00:22:43;99748.38;;;18.49;54.34
74915;BME280;63475;45.140;-75.616;2023-06-10T00:23:48;99751.44;;;18.46;54.38
74915;BME280;63475;45.140;-75.616;2023-06-10T00:24:50;99752.63;;;18.44;54.48
74915;BME280;63475;45.140;-75.616;2023-06-10T00:25:54;99749.44;;;18.40;54.60
74915;BME280;63475;45.140;-75.616;2023-06-10T00:26:56;99747.31;;;18.36;55.05
74915;BME280;63475;45.140;-75.616;2023-06-10T00:27:59;99751.56;;;18.30;55.02
74915;BME280;63475;45.140;-75.616;2023-06-10T00:29:01;99744.66;;;18.27;55.21
74915;BME280;63475;45.140;-75.616;2023-06-10T00:30:05;99746.03;;;18.23;55.46
74915;BME280;63475;45.140;-75.616;2023-06-10T00:31:09;99750.09;;;18.19;55.67
74915;BME280;63475;45.140;-75.616;2023-06-10T00:32:12;99750.09;;;18.19;56.04
74915;BME280;63475;45.140;-75.616;2023-06-10T00:33:14;99752.13;;;18.17;56.02
74915;BME280;63475;45.140;-75.616;2023-06-10T00:34:17;99747.75;;;18.16;56.35
74915;BME280;63475;45.140;-75.616;2023-06-10T00:35:20;99745.59;;;18.12;56.12
74915;BME280;63475;45.140;-75.616;2023-06-10T00:36:22;99750.50;;;18.08;56.16
74915;BME280;63475;45.140;-75.616;2023-06-10T00:37:25;99751.88;;;18.04;56.23
74915;BME280;63475;45.140;-75.616;2023-06-10T00:38:28;99757.63;;;18.01;56.52
74915;BME280;63475;45.140;-75.616;2023-06-10T00:39:31;99753.41;;;17.98;56.76
74915;BME280;63475;45.140;-75.616;2023-06-10T00:40:39;99753.91;;;17.94;56.93
74915;BME280;63475;45.140;-75.616;2023-06-10T00:41:42;99757.84;;;17.91;56.95
74915;BME280;63475;45.140;-75.616;2023-06-10T00:42:45;99750.94;;;17.89;57.25
74915;BME280;63475;45.140;-75.616;2023-06-10T00:43:47;99758.38;;;17.87;57.41
74915;BME280;63475;45.140;-75.616;2023-06-10T00:44:51;99762.91;;;17.86;57.54
74915;BME280;63475;45.140;-75.616;2023-06-10T00:45:54;99755.84;;;17.85;57.48
74915;BME280;63475;45.140;-75.616;2023-06-10T00:46:57;99756.34;;;17.81;57.08
74915;BME280;63475;45.140;-75.616;2023-06-10T00:48:00;99757.56;;;17.78;57.05
74915;BME280;63475;45.140;-75.616;2023-06-10T00:49:03;99760.41;;;17.77;57.31
74915;BME280;63475;45.140;-75.616;2023-06-10T00:50:06;99753.69;;;17.73;57.58
74915;BME280;63475;45.140;-75.616;2023-06-10T00:51:09;99761.97;;;17.71;57.61
74915;BME280;63475;45.140;-75.616;2023-06-10T00:52:14;99765.88;;;17.69;57.34
74915;BME280;63475;45.140;-75.616;2023-06-10T00:53:18;99758.97;;;17.66;57.69
74915;BME280;63475;45.140;-75.616;2023-06-10T00:54:21;99763.19;;;17.60;57.88
74915;BME280;63475;45.140;-75.616;2023-06-10T00:55:24;99769.59;;;17.59;58.13
74915;BME280;63475;45.140;-75.616;2023-06-10T00:56:29;99765.41;;;17.57;58.12
74915;BME280;63475;45.140;-75.616;2023-06-10T00:57:32;99764.06;;;17.53;58.34
74915;BME280;63475;45.140;-75.616;2023-06-10T00:58:36;99764.22;;;17.51;58.20
74915;BME280;63475;45.140;-75.616;2023-06-10T00:59:40;99761.88;;;17.48;58.25
74915;BME280;63475;45.140;-75.616;2023-06-10T01:00:44;99766.63;;;17.46;58.38
74915;BME280;63475;45.140;-75.616;2023-06-10T01:01:47;99768.00;;;17.42;58.15
74915;BME280;63475;45.140;-75.616;2023-06-10T01:02:49;99773.88;;;17.38;58.27
74915;BME280;63475;45.140;-75.616;2023-06-10T01:03:55;99771.53;;;17.35;58.49
74915;BME280;63475;45.140;-75.616;2023-06-10T01:05:00;99775.25;;;17.34;58.69
74915;BME280;63475;45.140;-75.616;2023-06-10T01:06:35;99781.81;;;17.31;58.45
74915;BME280;63475;45.140;-75.616;2023-06-10T01:08:01;99781.47;;;17.26;58.79
74915;BME280;63475;45.140;-75.616;2023-06-10T01:09:13;99775.63;;;17.22;58.89
74915;BME280;63475;45.140;-75.616;2023-06-10T01:10:54;99781.19;;;17.21;58.89
74915;BME280;63475;45.140;-75.616;2023-06-10T01:12:14;99781.00;;;17.14;59.00
74915;BME280;63475;45.140;-75.616;2023-06-10T01:13:20;99782.38;;;17.10;59.27
74915;BME280;63475;45.140;-75.616;2023-06-10T01:14:26;99786.22;;;17.08;59.54
74915;BME280;63475;45.140;-75.616;2023-06-10T01:15:33;99788.22;;;17.06;59.35
74915;BME280;63475;45.140;-75.616;2023-06-10T01:16:36;99784.22;;;17.02;59.49
74915;BME280;63475;45.140;-75.616;2023-06-10T01:17:58;99791.63;;;17.00;59.31
74915;BME280;63475;45.140;-75.616;2023-06-10T01:19:02;99792.63;;;16.99;59.63
74915;BME280;63475;45.140;-75.616;2023-06-10T01:20:05;99784.72;;;16.97;59.73
74915;BME280;63475;45.140;-75.616;2023-06-10T01:21:24;99788.59;;;16.94;59.75
74915;BME280;63475;45.140;-75.616;2023-06-10T01:22:27;99792.28;;;16.93;59.83
74915;BME280;63475;45.140;-75.616;2023-06-10T01:23:39;99792.47;;;16.92;59.75
74915;BME280;63475;45.140;-75.616;2023-06-10T01:24:42;99790.94;;;16.89;60.11
74915;BME280;63475;45.140;-75.616;2023-06-10T01:25:49;99807.28;;;16.88;60.26
74915;BME280;63475;45.140;-75.616;2023-06-10T01:26:59;99802.22;;;16.85;60.47
74915;BME280;63475;45.140;-75.616;2023-06-10T01:29:17;99801.22;;;16.78;60.48
74915;BME280;63475;45.140;-75.616;2023-06-10T01:30:27;99802.06;;;16.78;61.01
74915;BME280;63475;45.140;-75.616;2023-06-10T01:31:52;99806.78;;;16.76;60.70
74915;BME280;63475;45.140;-75.616;2023-06-10T01:33:00;99807.13;;;16.73;61.21
74915;BME280;63475;45.140;-75.616;2023-06-10T01:34:10;99804.75;;;16.70;61.26
74915;BME280;63475;45.140;-75.616;2023-06-10T01:35:15;99805.75;;;16.69;61.54
74915;BME280;63475;45.140;-75.616;2023-06-10T01:36:21;99807.94;;;16.66;61.56
74915;BME280;63475;45.140;-75.616;2023-06-10T01:37:25;99807.28;;;16.64;61.38
74915;BME280;63475;45.140;-75.616;2023-06-10T01:38:32;99816.53;;;16.61;61.13
74915;BME280;63475;45.140;-75.616;2023-06-10T01:39:36;99814.84;;;16.60;61.33
74915;BME280;63475;45.140;-75.616;2023-06-10T01:40:40;99814.84;;;16.60;61.84
74915;BME280;63475;45.140;-75.616;2023-06-10T01:41:43;99808.59;;;16.59;62.33
74915;BME280;63475;45.140;-75.616;2023-06-10T01:42:46;99815.00;;;16.58;62.61
74915;BME280;63475;45.140;-75.616;2023-06-10T01:43:49;99807.13;;;16.57;63.07
74915;BME280;63475;45.140;-75.616;2023-06-10T01:44:53;99806.44;;;16.55;63.29
74915;BME280;63475;45.140;-75.616;2023-06-10T01:45:55;99808.47;;;16.53;63.65
74915;BME280;63475;45.140;-75.616;2023-06-10T01:46:58;99807.78;;;16.51;63.84
74915;BME280;63475;45.140;-75.616;2023-06-10T01:48:00;99806.09;;;16.50;63.54
74915;BME280;63475;45.140;-75.616;2023-06-10T01:49:03;99805.41;;;16.48;63.55
74915;BME280;63475;45.140;-75.616;2023-06-10T01:50:06;99808.44;;;16.45;63.63
74915;BME280;63475;45.140;-75.616;2023-06-10T01:51:09;99813.13;;;16.43;64.03
74915;BME280;63475;45.140;-75.616;2023-06-10T01:52:12;99807.06;;;16.41;64.38
74915;BME280;63475;45.140;-75.616;2023-06-10T01:53:14;99813.47;;;16.40;64.83
74915;BME280;63475;45.140;-75.616;2023-06-10T01:54:17;99810.94;;;16.38;64.59
74915;BME280;63475;45.140;-75.616;2023-06-10T01:55:20;99815.84;;;16.35;64.37
74915;BME280;63475;45.140;-75.616;2023-06-10T01:56:22;99810.78;;;16.32;64.65
74915;BME280;63475;45.140;-75.616;2023-06-10T01:57:25;99812.09;;;16.27;64.81
74915;BME280;63475;45.140;-75.616;2023-06-10T01:58:28;99811.44;;;16.25;65.06
74915;BME280;63475;45.140;-75.616;2023-06-10T01:59:30;99817.97;;;16.23;65.56
74915;BME280;63475;45.140;-75.616;2023-06-10T02:00:33;99821.50;;;16.23;65.91
74915;BME280;63475;45.140;-75.616;2023-06-10T02:01:36;99809.38;;;16.19;66.25
74915;BME280;63475;45.140;-75.616;2023-06-10T02:02:38;99811.22;;;16.19;65.90
74915;BME280;63475;45.140;-75.616;2023-06-10T02:03:41;99815.94;;;16.17;65.76
74915;BME280;63475;45.140;-75.616;2023-06-10T02:04:44;99817.78;;;16.16;66.02
74915;BME280;63475;45.140;-75.616;2023-06-10T02:05:47;99816.22;;;16.14;65.79
74915;BME280;63475;45.140;-75.616;2023-06-10T02:06:49;99813.03;;;16.10;65.75
74915;BME280;63475;45.140;-75.616;2023-06-10T02:07:52;99812.38;;;16.08;66.12
74915;BME280;63475;45.140;-75.616;2023-06-10T02:08:55;99815.22;;;16.07;66.64
74915;BME280;63475;45.140;-75.616;2023-06-10T02:09:57;99812.69;;;16.05;66.68
74915;BME280;63475;45.140;-75.616;2023-06-10T02:11:00;99817.38;;;16.03;66.59
74915;BME280;63475;45.140;-75.616;2023-06-10T02:12:03;99812.00;;;16.03;66.93
74915;BME280;63475;45.140;-75.616;2023-06-10T02:13:07;99819.06;;;16.04;66.75
74915;BME280;63475;45.140;-75.616;2023-06-10T02:14:09;99806.94;;;16.00;66.75
74915;BME280;63475;45.140;-75.616;2023-06-10T02:15:12;99811.81;;;15.97;66.99
74915;BME280;63475;45.140;-75.616;2023-06-10T02:16:14;99814.66;;;15.95;67.08
74915;BME280;63475;45.140;-75.616;2023-06-10T02:17:19;99815.97;;;15.91;67.30
74915;BME280;63475;45.140;-75.616;2023-06-10T02:18:21;99808.25;;;15.88;67.39
74915;BME280;63475;45.140;-75.616;2023-06-10T02:19:24;99814.81;;;15.85;67.66
74915;BME280;63475;45.140;-75.616;2023-06-10T02:20:28;99808.06;;;15.81;67.62
74915;BME280;63475;45.140;-75.616;2023-06-10T02:21:31;99810.22;;;15.78;67.94
74915;BME280;63475;45.140;-75.616;2023-06-10T02:22:34;99810.53;;;15.75;67.87
74915;BME280;63475;45.140;-75.616;2023-06-10T02:23:36;99813.56;;;15.72;67.86
74915;BME280;63475;45.140;-75.616;2023-06-10T02:24:39;99810.19;;;15.70;67.96
74915;BME280;63475;45.140;-75.616;2023-06-10T02:25:42;99805.16;;;15.67;67.91
74915;BME280;63475;45.140;-75.616;2023-06-10T02:26:44;99808.84;;;15.66;68.18
74915;BME280;63475;45.140;-75.616;2023-06-10T02:27:48;99813.69;;;15.62;68.01
74915;BME280;63475;45.140;-75.616;2023-06-10T02:28:50;99806.78;;;15.59;67.79
74915;BME280;63475;45.140;-75.616;2023-06-10T02:29:53;99808.63;;;15.59;67.96
74915;BME280;63475;45.140;-75.616;2023-06-10T02:30:56;99804.41;;;15.56;67.87
74915;BME280;63475;45.140;-75.616;2023-06-10T02:31:59;99810.94;;;15.54;67.84
74915;BME280;63475;45.140;-75.616;2023-06-10T02:33:01;99801.34;;;15.51;67.46
74915;BME280;63475;45.140;-75.616;2023-06-10T02:34:04;99799.66;;;15.50;67.38
74915;BME280;63475;45.140;-75.616;2023-06-10T02:35:07;99805.03;;;15.50;67.43
74915;BME280;63475;45.140;-75.616;2023-06-10T02:36:11;99805.03;;;15.50;67.35
74915;BME280;63475;45.140;-75.616;2023-06-10T02:37:18;99804.50;;;15.47;67.06
74915;BME280;63475;45.140;-75.616;2023-06-10T02:38:20;99807.22;;;15.47;67.25
74915;BME280;63475;45.140;-75.616;2023-06-10T02:39:23;99810.75;;;15.47;67.54
74915;BME280;63475;45.140;-75.616;2023-06-10T02:40:26;99808.06;;;15.47;67.73
74915;BME280;63475;45.140;-75.616;2023-06-10T02:41:28;99804.03;;;15.43;67.82
74915;BME280;63475;45.140;-75.616;2023-06-10T02:42:31;99796.97;;;15.42;67.70
74915;BME280;63475;45.140;-75.616;2023-06-10T02:43:34;99804.34;;;15.40;67.92
74915;BME280;63475;45.140;-75.616;2023-06-10T02:44:37;99800.97;;;15.38;68.03
74915;BME280;63475;45.140;-75.616;2023-06-10T02:45:40;99804.66;;;15.37;68.01
74915;BME280;63475;45.140;-75.616;2023-06-10T02:46:43;99805.66;;;15.36;68.36
74915;BME280;63475;45.140;-75.616;2023-06-10T02:47:45;99799.59;;;15.34;68.35
74915;BME280;63475;45.140;-75.616;2023-06-10T02:48:48;99804.97;;;15.34;68.62
74915;BME280;63475;45.140;-75.616;2023-06-10T02:49:54;99795.22;;;15.33;69.08
74915;BME280;63475;45.140;-75.616;2023-06-10T02:50:56;99799.91;;;15.31;68.97
74915;BME280;63475;45.140;-75.616;2023-06-10T02:51:59;99803.59;;;15.30;68.57
74915;BME280;63475;45.140;-75.616;2023-06-10T02:53:02;99800.91;;;15.30;69.21
74915;BME280;63475;45.140;-75.616;2023-06-10T02:54:04;99801.91;;;15.29;68.98
74915;BME280;63475;45.140;-75.616;2023-06-10T02:55:07;99808.44;;;15.27;69.18
74915;BME280;63475;45.140;-75.616;2023-06-10T02:56:10;99811.28;;;15.25;69.25
74915;BME280;63475;45.140;-75.616;2023-06-10T02:57:15;99800.03;;;15.21;69.41
74915;BME280;63475;45.140;-75.616;2023-06-10T02:58:17;99803.72;;;15.20;69.13
74915;BME280;63475;45.140;-75.616;2023-06-10T02:59:20;99801.19;;;15.19;69.14
74915;BME280;63475;45.140;-75.616;2023-06-10T03:00:23;99802.19;;;15.18;69.39
74915;BME280;63475;45.140;-75.616;2023-06-10T03:01:26;99808.56;;;15.17;69.32
74915;BME280;63475;45.140;-75.616;2023-06-10T03:02:29;99797.81;;;15.17;69.66
74915;BME280;63475;45.140;-75.616;2023-06-10T03:03:31;99804.88;;;15.18;69.47
74915;BME280;63475;45.140;-75.616;2023-06-10T03:04:35;99807.56;;;15.18;69.53
74915;BME280;63475;45.140;-75.616;2023-06-10T03:05:39;99802.19;;;15.18;69.49
74915;BME280;63475;45.140;-75.616;2023-06-10T03:06:42;99799.81;;;15.15;69.35
74915;BME280;63475;45.140;-75.616;2023-06-10T03:07:45;99807.31;;;15.11;69.18
74915;BME280;63475;45.140;-75.616;2023-06-10T03:08:49;99804.78;;;15.10;69.13
74915;BME280;63475;45.140;-75.616;2023-06-10T03:09:52;99801.41;;;15.08;69.30
74915;BME280;63475;45.140;-75.616;2023-06-10T03:10:55;99801.41;;;15.08;68.93
74915;BME280;63475;45.140;-75.616;2023-06-10T03:11:57;99799.72;;;15.07;68.78
74915;BME280;63475;45.140;-75.616;2023-06-10T03:13:00;99798.72;;;15.08;69.17
74915;BME280;63475;45.140;-75.616;2023-06-10T03:14:03;99800.41;;;15.09;69.61
74915;BME280;63475;45.140;-75.616;2023-06-10T03:15:06;99801.09;;;15.11;69.85
74915;BME280;63475;45.140;-75.616;2023-06-10T03:16:09;99802.94;;;15.10;69.88
74915;BME280;63475;45.140;-75.616;2023-06-10T03:17:12;99796.72;;;15.10;70.02
74915;BME280;63475;45.140;-75.616;2023-06-10T03:18:15;99800.41;;;15.09;69.78
74915;BME280;63475;45.140;-75.616;2023-06-10T03:19:17;99793.34;;;15.08;70.12
74915;BME280;63475;45.140;-75.616;2023-06-10T03:20:20;99795.19;;;15.07;70.07
74915;BME280;63475;45.140;-75.616;2023-06-10T03:21:23;99785.91;;;15.02;70.27
74915;BME280;63475;45.140;-75.616;2023-06-10T03:22:26;99798.63;;;15.00;70.31
74915;BME280;63475;45.140;-75.616;2023-06-10T03:23:29;99786.41;;;14.97;70.32
74915;BME280;63475;45.140;-75.616;2023-06-10T03:24:31;99791.09;;;14.95;70.41
74915;BME280;63475;45.140;-75.616;2023-06-10T03:25:34;99788.41;;;14.95;70.54
74915;BME280;63475;45.140;-75.616;2023-06-10T03:26:37;99786.88;;;14.92;70.12
74915;BME280;63475;45.140;-75.616;2023-06-10T03:27:41;99790.00;;;14.88;69.74
74915;BME280;63475;45.140;-75.616;2023-06-10T03:28:44;99791.00;;;14.87;70.05
74915;BME280;63475;45.140;-75.616;2023-06-10T03:29:47;99787.63;;;14.85;70.04
74915;BME280;63475;45.140;-75.616;2023-06-10T03:30:50;99795.84;;;14.83;69.91
74915;BME280;63475;45.140;-75.616;2023-06-10T03:31:53;99787.94;;;14.82;69.73
74915;BME280;63475;45.140;-75.616;2023-06-10T03:32:56;99789.94;;;14.80;69.71
74915;BME280;63475;45.140;-75.616;2023-06-10T03:33:59;99797.00;;;14.81;69.94
74915;BME280;63475;45.140;-75.616;2023-06-10T03:35:02;99789.09;;;14.79;69.84
74915;BME280;63475;45.140;-75.616;2023-06-10T03:36:05;99789.09;;;14.79;69.88
74915;BME280;63475;45.140;-75.616;2023-06-10T03:37:16;99797.00;;;14.81;70.12
74915;BME280;63475;45.140;-75.616;2023-06-10T03:38:19;99800.69;;;14.80;70.14
74915;BME280;63475;45.140;-75.616;2023-06-10T03:39:22;99795.47;;;14.78;70.21
74915;BME280;63475;45.140;-75.616;2023-06-10T03:40:25;99795.63;;;14.77;70.26
74915;BME280;63475;45.140;-75.616;2023-06-10T03:41:28;99792.28;;;14.75;70.20
74915;BME280;63475;45.140;-75.616;2023-06-10T03:42:31;99794.25;;;14.73;70.26
74915;BME280;63475;45.140;-75.616;2023-06-10T03:43:33;99790.19;;;14.69;70.22
74915;BME280;63475;45.140;-75.616;2023-06-10T03:44:36;99786.66;;;14.68;70.46
74915;BME280;63475;45.140;-75.616;2023-06-10T03:45:40;99787.97;;;14.64;70.32
74915;BME280;63475;45.140;-75.616;2023-06-10T03:46:43;99781.91;;;14.62;70.18
74915;BME280;63475;45.140;-75.616;2023-06-10T03:47:46;99782.75;;;14.63;70.50
74915;BME280;63475;45.140;-75.616;2023-06-10T03:48:50;99784.75;;;14.61;70.33
74915;BME280;63475;45.140;-75.616;2023-06-10T03:49:53;99785.59;;;14.61;70.43
74915;BME280;63475;45.140;-75.616;2023-06-10T03:50:55;99784.75;;;14.61;70.61
74915;BME280;63475;45.140;-75.616;2023-06-10T03:51:58;99788.28;;;14.61;70.41
74915;BME280;63475;45.140;-75.616;2023-06-10T03:53:01;99783.22;;;14.58;70.71
74915;BME280;63475;45.140;-75.616;2023-06-10T03:54:04;99782.53;;;14.56;70.96
74915;BME280;63475;45.140;-75.616;2023-06-10T03:55:07;99780.16;;;14.53;70.82
74915;BME280;63475;45.140;-75.616;2023-06-10T03:56:10;99774.97;;;14.51;70.60
74915;BME280;63475;45.140;-75.616;2023-06-10T03:57:13;99772.44;;;14.50;70.76
74915;BME280;63475;45.140;-75.616;2023-06-10T03:58:16;99769.06;;;14.48;71.02
74915;BME280;63475;45.140;-75.616;2023-06-10T03:59:20;99772.72;;;14.47;71.00
74915;BME280;63475;45.140;-75.616;2023-06-10T04:00:22;99766.66;;;14.45;71.13
74915;BME280;63475;45.140;-75.616;2023-06-10T04:01:25;99765.97;;;14.43;71.15
74915;BME280;63475;45.140;-75.616;2023-06-10T04:02:28;99767.13;;;14.40;71.42
74915;BME280;63475;45.140;-75.616;2023-06-10T04:03:31;99765.44;;;14.39;71.49
74915;BME280;63475;45.140;-75.616;2023-06-10T04:04:35;99759.22;;;14.39;71.68
74915;BME280;63475;45.140;-75.616;2023-06-10T04:05:40;99765.75;;;14.36;71.65
74915;BME280;63475;45.140;-75.616;2023-06-10T04:06:43;99763.22;;;14.35;71.63
74915;BME280;63475;45.140;-75.616;2023-06-10T04:07:46;99767.88;;;14.33;71.66
74915;BME280;63475;45.140;-75.616;2023-06-10T04:08:50;99763.50;;;14.32;71.78
74915;BME280;63475;45.140;-75.616;2023-06-10T04:09:53;99762.00;;;14.29;71.78
74915;BME280;63475;45.140;-75.616;2023-06-10T04:10:56;99766.69;;;14.27;71.54
74915;BME280;63475;45.140;-75.616;2023-06-10T04:11:58;99763.31;;;14.25;71.53
74915;BME280;63475;45.140;-75.616;2023-06-10T04:13:01;99764.44;;;14.22;71.53
74915;BME280;63475;45.140;-75.616;2023-06-10T04:14:05;99760.06;;;14.21;71.63
74915;BME280;63475;45.140;-75.616;2023-06-10T04:15:08;99761.06;;;14.20;71.48
74915;BME280;63475;45.140;-75.616;2023-06-10T04:16:11;99765.59;;;14.20;71.55
74915;BME280;63475;45.140;-75.616;2023-06-10T04:17:13;99761.91;;;14.21;71.52
74915;BME280;63475;45.140;-75.616;2023-06-10T04:18:17;99758.25;;;14.22;72.13
74915;BME280;63475;45.140;-75.616;2023-06-10T04:19:20;99759.09;;;14.22;71.66
74915;BME280;63475;45.140;-75.616;2023-06-10T04:20:23;99763.59;;;14.22;71.79
74915;BME280;63475;45.140;-75.616;2023-06-10T04:21:26;99763.44;;;14.23;71.99
74915;BME280;63475;45.140;-75.616;2023-06-10T04:22:29;99757.53;;;14.20;71.93
74915;BME280;63475;45.140;-75.616;2023-06-10T04:23:31;99764.75;;;14.19;71.97
74915;BME280;63475;45.140;-75.616;2023-06-10T04:24:34;99756.00;;;14.17;71.75
74915;BME280;63475;45.140;-75.616;2023-06-10T04:25:37;99754.31;;;14.16;71.65
74915;BME280;63475;45.140;-75.616;2023-06-10T04:26:40;99763.38;;;14.15;71.70
74915;BME280;63475;45.140;-75.616;2023-06-10T04:27:43;99760.69;;;14.15;71.75
74915;BME280;63475;45.140;-75.616;2023-06-10T04:28:46;99761.69;;;14.14;71.78
74915;BME280;63475;45.140;-75.616;2023-06-10T04:29:49;99750.94;;;14.14;71.50
74915;BME280;63475;45.140;-75.616;2023-06-10T04:30:51;99755.31;;;14.15;71.93
74915;BME280;63475;45.140;-75.616;2023-06-10T04:31:54;99753.31;;;14.17;72.27
74915;BME280;63475;45.140;-75.616;2023-06-10T04:32:57;99758.69;;;14.17;72.23
74915;BME280;63475;45.140;-75.616;2023-06-10T04:34:00;99758.00;;;14.15;72.27
74915;BME280;63475;45.140;-75.616;2023-06-10T04:35:04;99747.28;;;14.15;72.39
74915;BME280;63475;45.140;-75.616;2023-06-10T04:36:08;99748.13;;;14.16;72.66
74915;BME280;63475;45.140;-75.616;2023-06-10T04:37:10;99746.28;;;14.16;72.71
74915;BME280;63475;45.140;-75.616;2023-06-10T04:38:14;99750.66;;;14.17;73.16
74915;BME280;63475;45.140;-75.616;2023-06-10T04:39:16;99748.13;;;14.16;72.89
74915;BME280;63475;45.140;-75.616;2023-06-10T04:40:19;99752.78;;;14.14;73.19
74915;BME280;63475;45.140;-75.616;2023-06-10T04:41:22;99743.91;;;14.13;73.31
74915;BME280;63475;45.140;-75.616;2023-06-10T04:42:25;99749.25;;;14.13;73.70
74915;BME280;63475;45.140;-75.616;2023-06-10T04:43:28;99750.56;;;14.09;73.49
74915;BME280;63475;45.140;-75.616;2023-06-10T04:44:31;99742.84;;;14.06;73.65
74915;BME280;63475;45.140;-75.616;2023-06-10T04:45:34;99740.16;;;14.06;73.47
74915;BME280;63475;45.140;-75.616;2023-06-10T04:46:36;99748.31;;;14.05;73.37
74915;BME280;63475;45.140;-75.616;2023-06-10T04:47:39;99744.78;;;14.04;73.43
74915;BME280;63475;45.140;-75.616;2023-06-10T04:48:42;99747.47;;;14.04;73.71
74915;BME280;63475;45.140;-75.616;2023-06-10T04:49:49;99746.78;;;14.02;73.59
74915;BME280;63475;45.140;-75.616;2023-06-10T04:50:51;99745.38;;;13.98;73.19
74915;BME280;63475;45.140;-75.616;2023-06-10T04:51:54;99743.84;;;13.96;73.23
74915;BME280;63475;45.140;-75.616;2023-06-10T04:52:57;99743.00;;;13.95;72.80
74915;BME280;63475;45.140;-75.616;2023-06-10T04:54:00;99735.13;;;13.94;73.37
74915;BME280;63475;45.140;-75.616;2023-06-10T04:55:06;99742.31;;;13.93;73.16
74915;BME280;63475;45.140;-75.616;2023-06-10T04:56:09;99739.63;;;13.93;73.61
74915;BME280;63475;45.140;-75.616;2023-06-10T04:57:12;99737.78;;;13.94;73.56
74915;BME280;63475;45.140;-75.616;2023-06-10T04:58:15;99740.31;;;13.95;73.79
74915;BME280;63475;45.140;-75.616;2023-06-10T04:59:18;99740.31;;;13.95;73.68
74915;BME280;63475;45.140;-75.616;2023-06-10T05:00:20;99736.25;;;13.91;73.65
74915;BME280;63475;45.140;-75.616;2023-06-10T05:01:23;99735.25;;;13.92;73.93
74915;BME280;63475;45.140;-75.616;2023-06-10T05:02:26;99737.25;;;13.90;73.62
74915;BME280;63475;45.140;-75.616;2023-06-10T05:03:28;99730.53;;;13.86;73.74
74915;BME280;63475;45.140;-75.616;2023-06-10T05:04:31;99727.16;;;13.84;73.54
74915;BME280;63475;45.140;-75.616;2023-06-10T05:05:34;99730.81;;;13.83;73.83
74915;BME280;63475;45.140;-75.616;2023-06-10T05:06:37;99732.81;;;13.81;73.51
74915;BME280;63475;45.140;-75.616;2023-06-10T05:07:39;99724.06;;;13.79;74.03
74915;BME280;63475;45.140;-75.616;2023-06-10T05:08:42;99733.97;;;13.78;73.98
74915;BME280;63475;45.140;-75.616;2023-06-10T05:09:45;99731.44;;;13.77;73.80
74915;BME280;63475;45.140;-75.616;2023-06-10T05:10:47;99727.06;;;13.76;73.75
74915;BME280;63475;45.140;-75.616;2023-06-10T05:11:50;99731.72;;;13.74;73.32
74915;BME280;63475;45.140;-75.616;2023-06-10T05:12:53;99732.72;;;13.73;73.76
74915;BME280;63475;45.140;-75.616;2023-06-10T05:13:55;99733.69;;;13.72;74.13
74915;BME280;63475;45.140;-75.616;2023-06-10T05:14:58;99733.69;;;13.72;73.96
74915;BME280;63475;45.140;-75.616;2023-06-10T05:16:01;99724.81;;;13.71;74.27
74915;BME280;63475;45.140;-75.616;2023-06-10T05:17:05;99729.47;;;13.69;74.11
74915;BME280;63475;45.140;-75.616;2023-06-10T05:18:11;99722.59;;;13.67;74.10
74915;BME280;63475;45.140;-75.616;2023-06-10T05:19:14;99728.09;;;13.65;73.89
74915;BME280;63475;45.140;-75.616;2023-06-10T05:20:20;99732.78;;;13.63;74.11
74915;BME280;63475;45.140;-75.616;2023-06-10T05:21:23;99729.25;;;13.63;73.84
74915;BME280;63475;45.140;-75.616;2023-06-10T05:22:26;99730.41;;;13.60;74.11
74915;BME280;63475;45.140;-75.616;2023-06-10T05:23:29;99728.56;;;13.61;74.16
74915;BME280;63475;45.140;-75.616;2023-06-10T05:24:32;99727.88;;;13.59;73.87
74915;BME280;63475;45.140;-75.616;2023-06-10T05:25:35;99721.81;;;13.57;74.04
74915;BME280;63475;45.140;-75.616;2023-06-10T05:26:38;99728.16;;;13.55;73.96
74915;BME280;63475;45.140;-75.616;2023-06-10T05:27:41;99726.47;;;13.54;74.27
74915;BME280;63475;45.140;-75.616;2023-06-10T05:28:44;99720.41;;;13.52;73.99
74915;BME280;63475;45.140;-75.616;2023-06-10T05:29:47;99726.78;;;13.51;74.10
74915;BME280;63475;45.140;-75.616;2023-06-10T05:30:50;99725.22;;;13.49;74.05